sensor_id;sensor_type;location;lat;lon;timestamp;P1;durP1;ratioP1;P2;durP2;ratioP2
49842;SDS011;55559;48.898;9.184;2022-07-10T00:02:09;8.82;;;2.13;;
49842;SDS011;55559;48.898;9.184;2022-07-10T00:04:37;8.60;;;2.50;;
49842;SDS011;55559;48.898;9.184;2022-07-10T00:07:04;3.30;;;1.27;;
49842;SDS011;55559;48.898;9.184;2022-07-10T00:09:34;4.60;;;1.20;;
49842;SDS011;55559;48.898;9.184;2022-07-10T00:12:01;3.00;;;1.20;;
49842;SDS011;55559;48.898;9.184;2022-07-10T00:14:30;2.80;;;1.20;;
49842;SDS011;55559;48.898;9.184;2022-07-10T00:16:58;5.65;;;1.17;;
49842;SDS011;55559;48.898;9.184;2022-07-10T00:19:25;6.88;;;1.50;;
49842;SDS011;55559;48.898;9.184;2022-07-10T00:21:53;3.63;;;1.73;;
49842;SDS011;55559;48.898;9.184;2022-07-10T00:24:20;1.75;;;1.35;;
49842;SDS011;55559;48.898;9.184;2022-07-10T00:26:49;4.13;;;1.80;;
49842;SDS011;55559;48.898;9.184;2022-07-10T00:29:16;5.95;;;1.52;;
49842;SDS011;55559;48.898;9.184;2022-07-10T00:31:44;9.65;;;1.88;;
49842;SDS011;55559;48.898;9.184;2022-07-10T00:34:12;5.43;;;1.70;;
49842;SDS011;55559;48.898;9.184;2022-07-10T00:36:39;2.38;;;1.42;;
49842;SDS011;55559;48.898;9.184;2022-07-10T00:39:07;5.47;;;1.85;;
49842;SDS011;55559;48.898;9.184;2022-07-10T00:41:34;3.63;;;1.85;;
49842;SDS011;55559;48.898;9.184;2022-07-10T00:44:03;4.82;;;2.22;;
49842;SDS011;55559;48.898;9.184;2022-07-10T00:46:31;8.40;;;1.85;;
49842;SDS011;55559;48.898;9.184;2022-07-10T00:48:58;3.42;;;1.88;;
49842;SDS011;55559;48.898;9.184;2022-07-10T00:51:27;4.53;;;2.17;;
49842;SDS011;55559;48.898;9.184;2022-07-10T00:53:55;4.32;;;2.15;;
49842;SDS011;55559;48.898;9.184;2022-07-10T00:56:24;2.75;;;2.38;;
49842;SDS011;55559;48.898;9.184;2022-07-10T00:58:52;6.80;;;2.05;;
49842;SDS011;55559;48.898;9.184;2022-07-10T01:01:22;7.03;;;2.00;;
49842;SDS011;55559;48.898;9.184;2022-07-10T01:03:50;2.30;;;2.03;;
49842;SDS011;55559;48.898;9.184;2022-07-10T01:06:18;5.20;;;2.30;;
49842;SDS011;55559;48.898;9.184;2022-07-10T01:08:45;4.65;;;2.78;;
49842;SDS011;55559;48.898;9.184;2022-07-10T01:11:13;4.53;;;2.45;;
49842;SDS011;55559;48.898;9.184;2022-07-10T01:13:41;5.18;;;2.55;;
49842;SDS011;55559;48.898;9.184;2022-07-10T01:16:10;4.70;;;2.00;;
49842;SDS011;55559;48.898;9.184;2022-07-10T01:18:39;5.40;;;2.75;;
49842;SDS011;55559;48.898;9.184;2022-07-10T01:21:12;5.40;;;1.92;;
49842;SDS011;55559;48.898;9.184;2022-07-10T01:23:50;4.72;;;2.42;;
49842;SDS011;55559;48.898;9.184;2022-07-10T01:26:18;5.13;;;1.98;;
49842;SDS011;55559;48.898;9.184;2022-07-10T01:28:47;3.17;;;2.22;;
49842;SDS011;55559;48.898;9.184;2022-07-10T01:31:16;3.58;;;2.42;;
49842;SDS011;55559;48.898;9.184;2022-07-10T01:33:44;4.53;;;2.72;;
49842;SDS011;55559;48.898;9.184;2022-07-10T01:36:13;3.10;;;2.85;;
49842;SDS011;55559;48.898;9.184;2022-07-10T01:38:41;7.75;;;2.85;;
49842;SDS011;55559;48.898;9.184;2022-07-10T01:41:08;5.72;;;2.92;;
49842;SDS011;55559;48.898;9.184;2022-07-10T01:43:36;4.65;;;2.80;;
49842;SDS011;55559;48.898;9.184;2022-07-10T01:46:07;5.65;;;2.85;;
49842;SDS011;55559;48.898;9.184;2022-07-10T01:48:36;4.38;;;2.55;;
49842;SDS011;55559;48.898;9.184;2022-07-10T01:51:05;3.40;;;2.90;;
49842;SDS011;55559;48.898;9.184;2022-07-10T01:53:34;5.97;;;3.20;;
49842;SDS011;55559;48.898;9.184;2022-07-10T01:56:02;6.35;;;2.78;;
49842;SDS011;55559;48.898;9.184;2022-07-10T01:58:32;2.83;;;2.53;;
49842;SDS011;55559;48.898;9.184;2022-07-10T02:00:59;4.78;;;2.55;;
49842;SDS011;55559;48.898;9.184;2022-07-10T02:03:27;7.45;;;2.65;;
49842;SDS011;55559;48.898;9.184;2022-07-10T02:06:12;5.97;;;2.55;;
49842;SDS011;55559;48.898;9.184;2022-07-10T02:08:41;5.05;;;3.03;;
49842;SDS011;55559;48.898;9.184;2022-07-10T02:11:08;7.07;;;3.35;;
49842;SDS011;55559;48.898;9.184;2022-07-10T02:13:37;9.10;;;3.50;;
49842;SDS011;55559;48.898;9.184;2022-07-10T02:16:05;3.83;;;3.53;;
49842;SDS011;55559;48.898;9.184;2022-07-10T02:18:33;7.03;;;3.38;;
49842;SDS011;55559;48.898;9.184;2022-07-10T02:21:00;7.07;;;3.67;;
49842;SDS011;55559;48.898;9.184;2022-07-10T02:23:28;5.50;;;4.40;;
49842;SDS011;55559;48.898;9.184;2022-07-10T02:25:57;6.80;;;4.82;;
49842;SDS011;55559;48.898;9.184;2022-07-10T02:28:25;6.70;;;5.03;;
49842;SDS011;55559;48.898;9.184;2022-07-10T02:30:52;11.38;;;6.45;;
49842;SDS011;55559;48.898;9.184;2022-07-10T02:33:20;8.15;;;5.10;;
49842;SDS011;55559;48.898;9.184;2022-07-10T02:35:47;5.78;;;5.00;;
49842;SDS011;55559;48.898;9.184;2022-07-10T02:38:15;7.90;;;5.72;;
49842;SDS011;55559;48.898;9.184;2022-07-10T02:40:42;8.93;;;6.22;;
49842;SDS011;55559;48.898;9.184;2022-07-10T02:43:11;6.35;;;5.10;;
49842;SDS011;55559;48.898;9.184;2022-07-10T02:45:38;6.10;;;5.55;;
49842;SDS011;55559;48.898;9.184;2022-07-10T02:48:06;8.45;;;5.85;;
49842;SDS011;55559;48.898;9.184;2022-07-10T02:50:33;10.18;;;5.40;;
49842;SDS011;55559;48.898;9.184;2022-07-10T02:53:01;7.25;;;5.45;;
49842;SDS011;55559;48.898;9.184;2022-07-10T02:55:28;8.93;;;6.18;;
49842;SDS011;55559;48.898;9.184;2022-07-10T02:57:57;9.38;;;6.45;;
49842;SDS011;55559;48.898;9.184;2022-07-10T03:00:27;15.32;;;6.57;;
49842;SDS011;55559;48.898;9.184;2022-07-10T03:02:55;11.60;;;6.40;;
49842;SDS011;55559;48.898;9.184;2022-07-10T03:05:23;10.60;;;7.00;;
49842;SDS011;55559;48.898;9.184;2022-07-10T03:07:50;8.60;;;7.20;;
49842;SDS011;55559;48.898;9.184;2022-07-10T03:10:18;8.20;;;7.13;;
49842;SDS011;55559;48.898;9.184;2022-07-10T03:12:46;16.55;;;9.23;;
49842;SDS011;55559;48.898;9.184;2022-07-10T03:15:14;10.25;;;7.70;;
49842;SDS011;55559;48.898;9.184;2022-07-10T03:17:42;12.50;;;7.65;;
49842;SDS011;55559;48.898;9.184;2022-07-10T03:20:10;13.77;;;8.20;;
49842;SDS011;55559;48.898;9.184;2022-07-10T03:22:38;11.40;;;8.43;;
49842;SDS011;55559;48.898;9.184;2022-07-10T03:25:06;11.93;;;7.97;;
49842;SDS011;55559;48.898;9.184;2022-07-10T03:27:33;9.48;;;8.05;;
49842;SDS011;55559;48.898;9.184;2022-07-10T03:30:01;7.65;;;7.00;;
49842;SDS011;55559;48.898;9.184;2022-07-10T03:32:48;6.95;;;6.30;;
49842;SDS011;55559;48.898;9.184;2022-07-10T03:35:15;11.38;;;6.97;;
49842;SDS011;55559;48.898;9.184;2022-07-10T03:37:43;10.95;;;6.18;;
49842;SDS011;55559;48.898;9.184;2022-07-10T03:40:10;9.98;;;7.30;;
49842;SDS011;55559;48.898;9.184;2022-07-10T03:42:38;7.10;;;5.85;;
49842;SDS011;55559;48.898;9.184;2022-07-10T03:45:06;7.18;;;6.50;;
49842;SDS011;55559;48.898;9.184;2022-07-10T03:47:34;10.57;;;6.20;;
49842;SDS011;55559;48.898;9.184;2022-07-10T03:50:03;12.15;;;6.43;;
49842;SDS011;55559;48.898;9.184;2022-07-10T03:52:31;6.28;;;5.47;;
49842;SDS011;55559;48.898;9.184;2022-07-10T03:54:59;9.40;;;5.43;;
49842;SDS011;55559;48.898;9.184;2022-07-10T03:57:26;7.07;;;6.05;;
49842;SDS011;55559;48.898;9.184;2022-07-10T04:00:11;6.05;;;4.78;;
49842;SDS011;55559;48.898;9.184;2022-07-10T04:02:39;10.45;;;5.50;;
49842;SDS011;55559;48.898;9.184;2022-07-10T04:05:08;9.18;;;5.10;;
49842;SDS011;55559;48.898;9.184;2022-07-10T04:07:36;11.60;;;5.72;;
49842;SDS011;55559;48.898;9.184;2022-07-10T04:10:04;12.48;;;4.72;;
49842;SDS011;55559;48.898;9.184;2022-07-10T04:12:33;8.85;;;4.32;;
49842;SDS011;55559;48.898;9.184;2022-07-10T04:15:00;12.02;;;4.57;;
49842;SDS011;55559;48.898;9.184;2022-07-10T04:17:28;5.20;;;4.40;;
49842;SDS011;55559;48.898;9.184;2022-07-10T04:19:57;8.68;;;4.40;;
49842;SDS011;55559;48.898;9.184;2022-07-10T04:22:26;5.63;;;4.13;;
49842;SDS011;55559;48.898;9.184;2022-07-10T04:24:54;5.30;;;3.58;;
49842;SDS011;55559;48.898;9.184;2022-07-10T04:27:22;6.80;;;3.78;;
49842;SDS011;55559;48.898;9.184;2022-07-10T04:29:49;10.68;;;4.18;;
49842;SDS011;55559;48.898;9.184;2022-07-10T04:32:16;6.90;;;3.65;;
49842;SDS011;55559;48.898;9.184;2022-07-10T04:34:44;6.47;;;3.92;;
49842;SDS011;55559;48.898;9.184;2022-07-10T04:37:11;9.35;;;3.28;;
49842;SDS011;55559;48.898;9.184;2022-07-10T04:39:40;5.90;;;3.30;;
49842;SDS011;55559;48.898;9.184;2022-07-10T04:42:08;10.23;;;2.78;;
49842;SDS011;55559;48.898;9.184;2022-07-10T04:44:36;10.93;;;3.33;;
49842;SDS011;55559;48.898;9.184;2022-07-10T04:47:03;9.07;;;2.60;;
49842;SDS011;55559;48.898;9.184;2022-07-10T04:49:31;12.15;;;2.40;;
49842;SDS011;55559;48.898;9.184;2022-07-10T04:51:59;5.00;;;2.88;;
49842;SDS011;55559;48.898;9.184;2022-07-10T04:54:27;7.47;;;2.15;;
49842;SDS011;55559;48.898;9.184;2022-07-10T04:56:56;5.32;;;2.15;;
49842;SDS011;55559;48.898;9.184;2022-07-10T04:59:23;5.60;;;2.65;;
49842;SDS011;55559;48.898;9.184;2022-07-10T05:01:51;7.25;;;1.85;;
49842;SDS011;55559;48.898;9.184;2022-07-10T05:04:18;8.43;;;2.50;;
49842;SDS011;55559;48.898;9.184;2022-07-10T05:06:45;3.15;;;1.60;;
49842;SDS011;55559;48.898;9.184;2022-07-10T05:09:13;5.82;;;2.13;;
49842;SDS011;55559;48.898;9.184;2022-07-10T05:11:40;4.30;;;1.48;;
49842;SDS011;55559;48.898;9.184;2022-07-10T05:14:09;4.90;;;1.30;;
49842;SDS011;55559;48.898;9.184;2022-07-10T05:16:37;5.03;;;0.90;;
49842;SDS011;55559;48.898;9.184;2022-07-10T05:19:04;2.35;;;1.10;;
49842;SDS011;55559;48.898;9.184;2022-07-10T05:21:31;4.10;;;1.10;;
49842;SDS011;55559;48.898;9.184;2022-07-10T05:23:59;5.18;;;1.10;;
49842;SDS011;55559;48.898;9.184;2022-07-10T05:26:26;6.57;;;0.73;;
49842;SDS011;55559;48.898;9.184;2022-07-10T05:28:54;7.00;;;0.70;;
49842;SDS011;55559;48.898;9.184;2022-07-10T05:31:23;3.35;;;0.95;;
49842;SDS011;55559;48.898;9.184;2022-07-10T05:33:50;4.43;;;0.82;;
49842;SDS011;55559;48.898;9.184;2022-07-10T05:36:17;2.67;;;0.80;;
49842;SDS011;55559;48.898;9.184;2022-07-10T05:38:45;5.50;;;0.73;;
49842;SDS011;55559;48.898;9.184;2022-07-10T05:41:12;4.60;;;0.80;;
49842;SDS011;55559;48.898;9.184;2022-07-10T05:43:40;5.72;;;0.90;;
49842;SDS011;55559;48.898;9.184;2022-07-10T05:46:07;5.88;;;0.70;;
49842;SDS011;55559;48.898;9.184;2022-07-10T05:48:36;6.45;;;1.17;;
49842;SDS011;55559;48.898;9.184;2022-07-10T05:51:04;8.20;;;1.17;;
49842;SDS011;55559;48.898;9.184;2022-07-10T05:53:32;5.32;;;0.90;;
49842;SDS011;55559;48.898;9.184;2022-07-10T05:56:00;3.35;;;0.70;;
49842;SDS011;55559;48.898;9.184;2022-07-10T05:58:27;5.18;;;0.95;;
49842;SDS011;55559;48.898;9.184;2022-07-10T06:00:56;3.92;;;0.70;;
49842;SDS011;55559;48.898;9.184;2022-07-10T06:03:23;4.32;;;0.98;;
49842;SDS011;55559;48.898;9.184;2022-07-10T06:05:52;4.30;;;0.80;;
49842;SDS011;55559;48.898;9.184;2022-07-10T06:08:20;4.40;;;0.98;;
49842;SDS011;55559;48.898;9.184;2022-07-10T06:10:48;6.35;;;1.40;;
49842;SDS011;55559;48.898;9.184;2022-07-10T06:13:15;6.45;;;0.93;;
49842;SDS011;55559;48.898;9.184;2022-07-10T06:15:43;3.55;;;0.82;;
49842;SDS011;55559;48.898;9.184;2022-07-10T06:18:10;1.65;;;0.65;;
49842;SDS011;55559;48.898;9.184;2022-07-10T06:20:38;6.47;;;1.00;;
49842;SDS011;55559;48.898;9.184;2022-07-10T06:23:07;2.90;;;0.80;;
49842;SDS011;55559;48.898;9.184;2022-07-10T06:25:34;10.82;;;1.10;;
49842;SDS011;55559;48.898;9.184;2022-07-10T06:28:01;3.50;;;0.63;;
49842;SDS011;55559;48.898;9.184;2022-07-10T06:30:29;8.52;;;0.60;;
49842;SDS011;55559;48.898;9.184;2022-07-10T06:32:56;4.95;;;0.63;;
49842;SDS011;55559;48.898;9.184;2022-07-10T06:35:24;3.58;;;0.70;;
49842;SDS011;55559;48.898;9.184;2022-07-10T06:37:52;5.45;;;0.50;;
49842;SDS011;55559;48.898;9.184;2022-07-10T06:40:21;5.05;;;0.60;;
49842;SDS011;55559;48.898;9.184;2022-07-10T06:42:48;3.97;;;0.40;;
49842;SDS011;55559;48.898;9.184;2022-07-10T06:45:18;4.35;;;0.60;;
49842;SDS011;55559;48.898;9.184;2022-07-10T06:47:46;5.32;;;0.60;;
49842;SDS011;55559;48.898;9.184;2022-07-10T06:50:22;2.67;;;0.43;;
49842;SDS011;55559;48.898;9.184;2022-07-10T06:52:50;4.45;;;0.57;;
49842;SDS011;55559;48.898;9.184;2022-07-10T06:55:18;8.32;;;0.50;;
49842;SDS011;55559;48.898;9.184;2022-07-10T06:57:48;2.92;;;0.57;;
49842;SDS011;55559;48.898;9.184;2022-07-10T07:00:15;2.33;;;0.32;;
49842;SDS011;55559;48.898;9.184;2022-07-10T07:02:43;2.20;;;0.47;;
49842;SDS011;55559;48.898;9.184;2022-07-10T07:05:10;5.50;;;0.60;;
49842;SDS011;55559;48.898;9.184;2022-07-10T07:07:38;8.43;;;0.50;;
49842;SDS011;55559;48.898;9.184;2022-07-10T07:10:06;6.00;;;0.60;;
49842;SDS011;55559;48.898;9.184;2022-07-10T07:12:35;6.50;;;0.40;;
49842;SDS011;55559;48.898;9.184;2022-07-10T07:15:05;4.03;;;0.40;;
49842;SDS011;55559;48.898;9.184;2022-07-10T07:17:38;4.60;;;0.50;;
49842;SDS011;55559;48.898;9.184;2022-07-10T07:20:23;4.88;;;0.43;;
49842;SDS011;55559;48.898;9.184;2022-07-10T07:23:09;7.20;;;0.90;;
49842;SDS011;55559;48.898;9.184;2022-07-10T07:25:36;3.10;;;0.40;;
49842;SDS011;55559;48.898;9.184;2022-07-10T07:28:07;7.20;;;0.38;;
49842;SDS011;55559;48.898;9.184;2022-07-10T07:30:37;2.85;;;0.32;;
49842;SDS011;55559;48.898;9.184;2022-07-10T07:33:05;11.05;;;1.40;;
49842;SDS011;55559;48.898;9.184;2022-07-10T07:35:32;7.63;;;1.02;;
49842;SDS011;55559;48.898;9.184;2022-07-10T07:38:00;5.82;;;0.35;;
49842;SDS011;55559;48.898;9.184;2022-07-10T07:40:29;6.93;;;0.40;;
49842;SDS011;55559;48.898;9.184;2022-07-10T07:42:56;6.75;;;0.30;;
49842;SDS011;55559;48.898;9.184;2022-07-10T07:45:24;4.43;;;0.45;;
49842;SDS011;55559;48.898;9.184;2022-07-10T07:47:54;4.70;;;1.25;;
49842;SDS011;55559;48.898;9.184;2022-07-10T07:50:23;3.55;;;0.50;;
49842;SDS011;55559;48.898;9.184;2022-07-10T07:52:52;6.07;;;0.50;;
49842;SDS011;55559;48.898;9.184;2022-07-10T07:55:19;1.02;;;0.30;;
49842;SDS011;55559;48.898;9.184;2022-07-10T07:57:50;3.53;;;0.30;;
49842;SDS011;55559;48.898;9.184;2022-07-10T08:00:19;1.33;;;0.20;;
49842;SDS011;55559;48.898;9.184;2022-07-10T08:02:48;2.63;;;0.30;;
49842;SDS011;55559;48.898;9.184;2022-07-10T08:05:18;5.22;;;0.40;;
49842;SDS011;55559;48.898;9.184;2022-07-10T08:07:47;1.40;;;0.30;;
49842;SDS011;55559;48.898;9.184;2022-07-10T08:10:16;4.00;;;0.40;;
49842;SDS011;55559;48.898;9.184;2022-07-10T08:12:45;2.65;;;0.40;;
49842;SDS011;55559;48.898;9.184;2022-07-10T08:15:13;2.88;;;0.35;;
49842;SDS011;55559;48.898;9.184;2022-07-10T08:17:41;7.50;;;0.47;;
49842;SDS011;55559;48.898;9.184;2022-07-10T08:20:10;0.90;;;0.32;;
49842;SDS011;55559;48.898;9.184;2022-07-10T08:22:40;3.75;;;0.30;;
49842;SDS011;55559;48.898;9.184;2022-07-10T08:25:09;4.68;;;0.25;;
49842;SDS011;55559;48.898;9.184;2022-07-10T08:27:37;2.28;;;0.20;;
49842;SDS011;55559;48.898;9.184;2022-07-10T08:30:05;1.77;;;0.30;;
49842;SDS011;55559;48.898;9.184;2022-07-10T08:32:34;8.95;;;0.28;;
49842;SDS011;55559;48.898;9.184;2022-07-10T08:35:02;6.57;;;0.30;;
49842;SDS011;55559;48.898;9.184;2022-07-10T08:37:30;2.88;;;0.30;;
49842;SDS011;55559;48.898;9.184;2022-07-10T08:40:08;4.00;;;0.32;;
49842;SDS011;55559;48.898;9.184;2022-07-10T08:42:36;1.90;;;0.30;;
49842;SDS011;55559;48.898;9.184;2022-07-10T08:45:04;0.50;;;0.20;;
49842;SDS011;55559;48.898;9.184;2022-07-10T08:47:33;2.65;;;0.40;;
49842;SDS011;55559;48.898;9.184;2022-07-10T08:50:01;3.40;;;0.50;;
49842;SDS011;55559;48.898;9.184;2022-07-10T08:52:31;5.55;;;0.40;;
49842;SDS011;55559;48.898;9.184;2022-07-10T08:55:03;2.28;;;0.30;;
49842;SDS011;55559;48.898;9.184;2022-07-10T08:57:33;1.65;;;0.20;;
49842;SDS011;55559;48.898;9.184;2022-07-10T09:00:01;4.13;;;0.35;;
49842;SDS011;55559;48.898;9.184;2022-07-10T09:02:29;7.47;;;0.30;;
49842;SDS011;55559;48.898;9.184;2022-07-10T09:04:57;1.55;;;0.20;;
49842;SDS011;55559;48.898;9.184;2022-07-10T09:07:24;2.80;;;0.20;;
49842;SDS011;55559;48.898;9.184;2022-07-10T09:10:04;4.07;;;0.20;;
49842;SDS011;55559;48.898;9.184;2022-07-10T09:15:19;3.47;;;0.30;;
49842;SDS011;55559;48.898;9.184;2022-07-10T09:17:49;1.20;;;0.20;;
49842;SDS011;55559;48.898;9.184;2022-07-10T09:20:23;0.70;;;0.20;;
49842;SDS011;55559;48.898;9.184;2022-07-10T09:22:52;4.72;;;0.30;;
49842;SDS011;55559;48.898;9.184;2022-07-10T09:25:19;1.45;;;0.20;;
49842;SDS011;55559;48.898;9.184;2022-07-10T09:27:53;2.35;;;0.20;;
49842;SDS011;55559;48.898;9.184;2022-07-10T09:30:33;2.25;;;0.20;;
49842;SDS011;55559;48.898;9.184;2022-07-10T09:33:18;3.35;;;0.17;;
49842;SDS011;55559;48.898;9.184;2022-07-10T09:35:59;3.15;;;0.30;;
49842;SDS011;55559;48.898;9.184;2022-07-10T09:41:17;2.53;;;0.20;;
49842;SDS011;55559;48.898;9.184;2022-07-10T09:43:48;1.48;;;0.22;;
49842;SDS011;55559;48.898;9.184;2022-07-10T09:46:17;2.80;;;0.20;;
49842;SDS011;55559;48.898;9.184;2022-07-10T09:48:45;1.92;;;0.25;;
49842;SDS011;55559;48.898;9.184;2022-07-10T09:51:13;4.20;;;0.22;;
49842;SDS011;55559;48.898;9.184;2022-07-10T09:53:41;1.13;;;0.20;;
49842;SDS011;55559;48.898;9.184;2022-07-10T09:56:10;2.85;;;0.30;;
49842;SDS011;55559;48.898;9.184;2022-07-10T09:58:39;3.75;;;0.17;;
49842;SDS011;55559;48.898;9.184;2022-07-10T10:01:08;2.63;;;0.28;;
49842;SDS011;55559;48.898;9.184;2022-07-10T10:03:36;2.53;;;0.30;;
49842;SDS011;55559;48.898;9.184;2022-07-10T10:06:06;2.05;;;0.20;;
49842;SDS011;55559;48.898;9.184;2022-07-10T10:08:44;3.42;;;0.20;;
49842;SDS011;55559;48.898;9.184;2022-07-10T10:11:19;5.15;;;0.28;;
49842;SDS011;55559;48.898;9.184;2022-07-10T10:13:48;2.50;;;0.20;;
49842;SDS011;55559;48.898;9.184;2022-07-10T10:16:18;7.30;;;0.73;;
49842;SDS011;55559;48.898;9.184;2022-07-10T10:18:46;2.13;;;0.20;;
49842;SDS011;55559;48.898;9.184;2022-07-10T10:21:31;1.58;;;0.20;;
49842;SDS011;55559;48.898;9.184;2022-07-10T10:24:00;3.65;;;0.20;;
49842;SDS011;55559;48.898;9.184;2022-07-10T10:26:28;3.33;;;0.30;;
49842;SDS011;55559;48.898;9.184;2022-07-10T10:28:56;4.20;;;0.30;;
49842;SDS011;55559;48.898;9.184;2022-07-10T10:31:27;2.40;;;0.15;;
49842;SDS011;55559;48.898;9.184;2022-07-10T10:33:55;2.03;;;0.20;;
49842;SDS011;55559;48.898;9.184;2022-07-10T10:36:44;1.70;;;0.20;;
49842;SDS011;55559;48.898;9.184;2022-07-10T10:39:13;1.83;;;0.20;;
49842;SDS011;55559;48.898;9.184;2022-07-10T10:41:47;2.90;;;0.30;;
49842;SDS011;55559;48.898;9.184;2022-07-10T10:44:20;6.28;;;0.22;;
49842;SDS011;55559;48.898;9.184;2022-07-10T10:47:06;2.88;;;0.30;;
49842;SDS011;55559;48.898;9.184;2022-07-10T10:49:48;4.63;;;0.30;;
49842;SDS011;55559;48.898;9.184;2022-07-10T10:52:17;5.35;;;0.30;;
49842;SDS011;55559;48.898;9.184;2022-07-10T10:57:39;2.53;;;0.20;;
49842;SDS011;55559;48.898;9.184;2022-07-10T11:00:29;4.30;;;0.40;;
49842;SDS011;55559;48.898;9.184;2022-07-10T11:03:16;2.28;;;0.22;;
49842;SDS011;55559;48.898;9.184;2022-07-10T11:05:46;3.20;;;0.30;;
49842;SDS011;55559;48.898;9.184;2022-07-10T11:08:15;3.17;;;0.20;;
49842;SDS011;55559;48.898;9.184;2022-07-10T11:14:03;6.97;;;0.45;;
49842;SDS011;55559;48.898;9.184;2022-07-10T11:16:31;4.18;;;0.30;;
49842;SDS011;55559;48.898;9.184;2022-07-10T11:19:00;0.70;;;0.10;;
49842;SDS011;55559;48.898;9.184;2022-07-10T11:21:29;2.53;;;0.30;;
49842;SDS011;55559;48.898;9.184;2022-07-10T11:24:15;5.63;;;0.20;;
49842;SDS011;55559;48.898;9.184;2022-07-10T11:27:08;7.15;;;0.73;;
49842;SDS011;55559;48.898;9.184;2022-07-10T11:29:50;4.45;;;0.35;;
49842;SDS011;55559;48.898;9.184;2022-07-10T11:32:23;2.08;;;0.20;;
49842;SDS011;55559;48.898;9.184;2022-07-10T11:34:53;1.92;;;0.20;;
49842;SDS011;55559;48.898;9.184;2022-07-10T11:37:21;1.80;;;0.20;;
49842;SDS011;55559;48.898;9.184;2022-07-10T11:40:07;1.37;;;0.17;;
49842;SDS011;55559;48.898;9.184;2022-07-10T11:42:47;1.73;;;0.20;;
49842;SDS011;55559;48.898;9.184;2022-07-10T11:45:25;1.23;;;0.17;;
49842;SDS011;55559;48.898;9.184;2022-07-10T11:47:54;2.03;;;0.20;;
49842;SDS011;55559;48.898;9.184;2022-07-10T11:50:24;3.20;;;0.10;;
49842;SDS011;55559;48.898;9.184;2022-07-10T11:52:52;3.95;;;0.20;;
49842;SDS011;55559;48.898;9.184;2022-07-10T11:55:21;2.22;;;0.30;;
49842;SDS011;55559;48.898;9.184;2022-07-10T11:57:50;1.88;;;0.17;;
49842;SDS011;55559;48.898;9.184;2022-07-10T12:00:21;5.78;;;0.20;;
49842;SDS011;55559;48.898;9.184;2022-07-10T12:02:50;1.58;;;0.20;;
49842;SDS011;55559;48.898;9.184;2022-07-10T12:05:32;1.52;;;0.20;;
49842;SDS011;55559;48.898;9.184;2022-07-10T12:08:01;3.90;;;0.20;;
49842;SDS011;55559;48.898;9.184;2022-07-10T12:10:29;2.53;;;0.20;;
49842;SDS011;55559;48.898;9.184;2022-07-10T12:13:04;3.72;;;0.20;;
49842;SDS011;55559;48.898;9.184;2022-07-10T12:15:33;1.05;;;0.10;;
49842;SDS011;55559;48.898;9.184;2022-07-10T12:18:03;3.63;;;0.32;;
49842;SDS011;55559;48.898;9.184;2022-07-10T12:20:33;2.35;;;0.30;;
49842;SDS011;55559;48.898;9.184;2022-07-10T12:23:02;2.08;;;0.20;;
49842;SDS011;55559;48.898;9.184;2022-07-10T12:25:31;3.30;;;0.20;;
49842;SDS011;55559;48.898;9.184;2022-07-10T12:27:58;2.05;;;0.20;;
49842;SDS011;55559;48.898;9.184;2022-07-10T12:30:39;5.30;;;0.20;;
49842;SDS011;55559;48.898;9.184;2022-07-10T12:33:08;1.77;;;0.20;;
49842;SDS011;55559;48.898;9.184;2022-07-10T12:35:50;2.17;;;0.20;;
49842;SDS011;55559;48.898;9.184;2022-07-10T12:38:20;7.68;;;0.70;;
49842;SDS011;55559;48.898;9.184;2022-07-10T12:40:49;1.60;;;0.30;;
49842;SDS011;55559;48.898;9.184;2022-07-10T12:43:26;0.95;;;0.10;;
49842;SDS011;55559;48.898;9.184;2022-07-10T12:46:10;2.63;;;0.15;;
49842;SDS011;55559;48.898;9.184;2022-07-10T12:48:41;1.65;;;0.20;;
49842;SDS011;55559;48.898;9.184;2022-07-10T12:51:24;0.80;;;0.15;;
49842;SDS011;55559;48.898;9.184;2022-07-10T12:53:53;1.35;;;0.20;;
49842;SDS011;55559;48.898;9.184;2022-07-10T12:56:32;1.23;;;0.10;;
49842;SDS011;55559;48.898;9.184;2022-07-10T12:59:01;1.75;;;0.17;;
49842;SDS011;55559;48.898;9.184;2022-07-10T13:01:40;4.45;;;0.30;;
49842;SDS011;55559;48.898;9.184;2022-07-10T13:04:08;0.98;;;0.10;;
49842;SDS011;55559;48.898;9.184;2022-07-10T13:06:38;1.33;;;0.10;;
49842;SDS011;55559;48.898;9.184;2022-07-10T13:09:18;0.70;;;0.10;;
49842;SDS011;55559;48.898;9.184;2022-07-10T13:11:50;2.45;;;0.20;;
49842;SDS011;55559;48.898;9.184;2022-07-10T13:14:19;1.15;;;0.10;;
49842;SDS011;55559;48.898;9.184;2022-07-10T13:16:47;3.90;;;0.13;;
49842;SDS011;55559;48.898;9.184;2022-07-10T13:19:15;1.25;;;0.20;;
49842;SDS011;55559;48.898;9.184;2022-07-10T13:21:44;0.80;;;0.20;;
49842;SDS011;55559;48.898;9.184;2022-07-10T13:24:11;7.35;;;0.32;;
49842;SDS011;55559;48.898;9.184;2022-07-10T13:26:39;1.75;;;0.20;;
49842;SDS011;55559;48.898;9.184;2022-07-10T13:29:06;3.75;;;0.20;;
49842;SDS011;55559;48.898;9.184;2022-07-10T13:31:34;2.78;;;0.20;;
49842;SDS011;55559;48.898;9.184;2022-07-10T13:34:01;2.60;;;0.40;;
49842;SDS011;55559;48.898;9.184;2022-07-10T13:36:29;0.65;;;0.10;;
49842;SDS011;55559;48.898;9.184;2022-07-10T13:38:58;3.90;;;0.32;;
49842;SDS011;55559;48.898;9.184;2022-07-10T13:41:26;1.55;;;0.20;;
49842;SDS011;55559;48.898;9.184;2022-07-10T13:43:53;1.65;;;0.10;;
49842;SDS011;55559;48.898;9.184;2022-07-10T13:46:21;1.65;;;0.20;;
49842;SDS011;55559;48.898;9.184;2022-07-10T13:48:48;2.15;;;0.20;;
49842;SDS011;55559;48.898;9.184;2022-07-10T13:51:16;0.70;;;0.10;;
49842;SDS011;55559;48.898;9.184;2022-07-10T13:53:43;0.80;;;0.10;;
49842;SDS011;55559;48.898;9.184;2022-07-10T13:56:12;4.35;;;0.22;;
49842;SDS011;55559;48.898;9.184;2022-07-10T13:58:39;1.63;;;0.20;;
49842;SDS011;55559;48.898;9.184;2022-07-10T14:01:07;5.88;;;0.10;;
49842;SDS011;55559;48.898;9.184;2022-07-10T14:03:34;0.82;;;0.00;;
49842;SDS011;55559;48.898;9.184;2022-07-10T14:06:02;1.35;;;0.20;;
49842;SDS011;55559;48.898;9.184;2022-07-10T14:08:30;2.05;;;0.10;;
49842;SDS011;55559;48.898;9.184;2022-07-10T14:10:57;1.40;;;0.10;;
49842;SDS011;55559;48.898;9.184;2022-07-10T14:13:26;2.00;;;0.22;;
49842;SDS011;55559;48.898;9.184;2022-07-10T14:15:54;3.10;;;0.25;;
49842;SDS011;55559;48.898;9.184;2022-07-10T14:18:21;2.03;;;0.20;;
49842;SDS011;55559;48.898;9.184;2022-07-10T14:21:03;0.93;;;0.10;;
49842;SDS011;55559;48.898;9.184;2022-07-10T14:23:33;2.15;;;0.20;;
49842;SDS011;55559;48.898;9.184;2022-07-10T14:26:02;1.42;;;0.10;;
49842;SDS011;55559;48.898;9.184;2022-07-10T14:28:32;0.82;;;0.10;;
49842;SDS011;55559;48.898;9.184;2022-07-10T14:31:01;2.60;;;0.10;;
49842;SDS011;55559;48.898;9.184;2022-07-10T14:33:30;0.82;;;0.20;;
49842;SDS011;55559;48.898;9.184;2022-07-10T14:35:57;7.18;;;2.17;;
49842;SDS011;55559;48.898;9.184;2022-07-10T14:38:25;1.00;;;0.30;;
49842;SDS011;55559;48.898;9.184;2022-07-10T14:40:54;3.95;;;0.30;;
49842;SDS011;55559;48.898;9.184;2022-07-10T14:43:22;2.47;;;0.15;;
49842;SDS011;55559;48.898;9.184;2022-07-10T14:45:51;1.98;;;0.20;;
49842;SDS011;55559;48.898;9.184;2022-07-10T14:48:19;2.13;;;0.20;;
49842;SDS011;55559;48.898;9.184;2022-07-10T14:50:46;3.03;;;0.20;;
49842;SDS011;55559;48.898;9.184;2022-07-10T14:53:13;4.15;;;0.20;;
49842;SDS011;55559;48.898;9.184;2022-07-10T14:55:41;1.40;;;0.20;;
49842;SDS011;55559;48.898;9.184;2022-07-10T14:58:08;1.13;;;0.30;;
49842;SDS011;55559;48.898;9.184;2022-07-10T15:00:36;3.17;;;0.40;;
49842;SDS011;55559;48.898;9.184;2022-07-10T15:03:05;3.28;;;0.60;;
49842;SDS011;55559;48.898;9.184;2022-07-10T15:05:32;3.72;;;0.50;;
49842;SDS011;55559;48.898;9.184;2022-07-10T15:08:00;2.20;;;0.90;;
49842;SDS011;55559;48.898;9.184;2022-07-10T15:10:29;1.35;;;0.30;;
49842;SDS011;55559;48.898;9.184;2022-07-10T15:12:57;1.23;;;0.10;;
49842;SDS011;55559;48.898;9.184;2022-07-10T15:15:30;4.75;;;0.20;;